sensor_id;sensor_type;location;lat;lon;timestamp;temperature;humidity
21171;DHT22;10743;52.160;20.910;2022-10-16T00:01:40;31.00;35.40
21171;DHT22;10743;52.160;20.910;2022-10-16T00:04:08;31.00;35.30
21171;DHT22;10743;52.160;20.910;2022-10-16T00:06:35;31.10;35.20
21171;DHT22;10743;52.160;20.910;2022-10-16T00:09:02;31.10;35.10
21171;DHT22;10743;52.160;20.910;2022-10-16T00:11:35;31.10;35.00
21171;DHT22;10743;52.160;20.910;2022-10-16T00:14:14;31.20;35.00
21171;DHT22;10743;52.160;20.910;2022-10-16T00:16:42;31.10;34.90
21171;DHT22;10743;52.160;20.910;2022-10-16T00:19:10;31.10;34.90
21171;DHT22;10743;52.160;20.910;2022-10-16T00:21:39;31.10;35.00
21171;DHT22;10743;52.160;20.910;2022-10-16T00:24:08;31.10;35.20
21171;DHT22;10743;52.160;20.910;2022-10-16T00:26:37;31.10;35.20
21171;DHT22;10743;52.160;20.910;2022-10-16T00:29:06;31.10;35.20
21171;DHT22;10743;52.160;20.910;2022-10-16T00:31:33;31.10;35.40
21171;DHT22;10743;52.160;20.910;2022-10-16T00:34:00;31.20;35.80
21171;DHT22;10743;52.160;20.910;2022-10-16T00:36:27;31.10;35.60
21171;DHT22;10743;52.160;20.910;2022-10-16T00:38:56;31.10;35.60
21171;DHT22;10743;52.160;20.910;2022-10-16T00:41:31;31.10;35.50
21171;DHT22;10743;52.160;20.910;2022-10-16T00:44:00;31.10;35.40
21171;DHT22;10743;52.160;20.910;2022-10-16T00:46:35;31.00;35.30
21171;DHT22;10743;52.160;20.910;2022-10-16T00:49:15;31.00;35.00
21171;DHT22;10743;52.160;20.910;2022-10-16T00:51:49;31.00;35.30
21171;DHT22;10743;52.160;20.910;2022-10-16T00:54:24;31.00;35.20
21171;DHT22;10743;52.160;20.910;2022-10-16T00:56:53;31.00;35.10
21171;DHT22;10743;52.160;20.910;2022-10-16T00:59:25;30.90;35.20
21171;DHT22;10743;52.160;20.910;2022-10-16T01:01:55;30.90;35.70
21171;DHT22;10743;52.160;20.910;2022-10-16T01:04:23;30.80;35.90
21171;DHT22;10743;52.160;20.910;2022-10-16T01:07:18;30.80;35.90
21171;DHT22;10743;52.160;20.910;2022-10-16T01:13:19;30.80;36.40
21171;DHT22;10743;52.160;20.910;2022-10-16T01:16:05;30.80;36.50
21171;DHT22;10743;52.160;20.910;2022-10-16T01:18:44;30.80;36.40
21171;DHT22;10743;52.160;20.910;2022-10-16T01:21:28;30.80;36.40
21171;DHT22;10743;52.160;20.910;2022-10-16T01:24:31;30.80;36.40
21171;DHT22;10743;52.160;20.910;2022-10-16T01:27:12;30.80;36.40
21171;DHT22;10743;52.160;20.910;2022-10-16T01:29:57;30.80;36.30
21171;DHT22;10743;52.160;20.910;2022-10-16T01:32:36;30.80;36.20
21171;DHT22;10743;52.160;20.910;2022-10-16T01:35:15;30.70;36.00
21171;DHT22;10743;52.160;20.910;2022-10-16T01:37:55;30.80;35.70
21171;DHT22;10743;52.160;20.910;2022-10-16T01:40:27;30.80;35.70
21171;DHT22;10743;52.160;20.910;2022-10-16T01:43:00;30.80;35.60
21171;DHT22;10743;52.160;20.910;2022-10-16T01:45:31;30.70;35.50
21171;DHT22;10743;52.160;20.910;2022-10-16T01:48:01;30.70;35.50
21171;DHT22;10743;52.160;20.910;2022-10-16T01:50:34;30.70;35.60
21171;DHT22;10743;52.160;20.910;2022-10-16T01:53:05;30.70;35.60
21171;DHT22;10743;52.160;20.910;2022-10-16T01:55:36;30.70;35.50
21171;DHT22;10743;52.160;20.910;2022-10-16T01:58:08;30.70;35.80
21171;DHT22;10743;52.160;20.910;2022-10-16T02:00:38;30.70;35.90
21171;DHT22;10743;52.160;20.910;2022-10-16T02:03:11;30.70;35.80
21171;DHT22;10743;52.160;20.910;2022-10-16T02:05:46;30.70;35.80
21171;DHT22;10743;52.160;20.910;2022-10-16T02:08:18;30.70;35.90
21171;DHT22;10743;52.160;20.910;2022-10-16T02:10:45;30.70;35.90
21171;DHT22;10743;52.160;20.910;2022-10-16T02:13:17;30.70;35.90
21171;DHT22;10743;52.160;20.910;2022-10-16T02:15:47;30.70;36.00
21171;DHT22;10743;52.160;20.910;2022-10-16T02:18:14;30.70;36.00
21171;DHT22;10743;52.160;20.910;2022-10-16T02:20:55;30.70;36.10
21171;DHT22;10743;52.160;20.910;2022-10-16T02:23:54;30.70;36.10
21171;DHT22;10743;52.160;20.910;2022-10-16T02:26:36;30.70;36.10
21171;DHT22;10743;52.160;20.910;2022-10-16T02:29:11;30.60;35.90
21171;DHT22;10743;52.160;20.910;2022-10-16T02:31:43;30.60;36.10
21171;DHT22;10743;52.160;20.910;2022-10-16T02:34:14;30.60;36.20
21171;DHT22;10743;52.160;20.910;2022-10-16T02:36:43;30.60;36.20
21171;DHT22;10743;52.160;20.910;2022-10-16T02:39:11;30.60;36.20
21171;DHT22;10743;52.160;20.910;2022-10-16T02:41:39;30.60;36.30
21171;DHT22;10743;52.160;20.910;2022-10-16T02:44:06;30.60;36.90
21171;DHT22;10743;52.160;20.910;2022-10-16T02:46:33;30.60;36.00
21171;DHT22;10743;52.160;20.910;2022-10-16T02:48:59;30.60;36.10
21171;DHT22;10743;52.160;20.910;2022-10-16T02:51:27;30.60;36.10
21171;DHT22;10743;52.160;20.910;2022-10-16T02:53:54;30.60;36.10
21171;DHT22;10743;52.160;20.910;2022-10-16T02:56:21;30.50;36.10
21171;DHT22;10743;52.160;20.910;2022-10-16T02:58:48;30.60;36.20
21171;DHT22;10743;52.160;20.910;2022-10-16T03:01:15;30.50;36.20
21171;DHT22;10743;52.160;20.910;2022-10-16T03:03:43;30.50;36.30
21171;DHT22;10743;52.160;20.910;2022-10-16T03:06:10;30.50;36.30
21171;DHT22;10743;52.160;20.910;2022-10-16T03:08:37;30.50;36.30
21171;DHT22;10743;52.160;20.910;2022-10-16T03:11:04;30.50;36.20
21171;DHT22;10743;52.160;20.910;2022-10-16T03:13:31;30.50;36.30
21171;DHT22;10743;52.160;20.910;2022-10-16T03:15:58;30.50;36.40
21171;DHT22;10743;52.160;20.910;2022-10-16T03:18:25;30.50;36.40
21171;DHT22;10743;52.160;20.910;2022-10-16T03:20:52;30.50;36.30
21171;DHT22;10743;52.160;20.910;2022-10-16T03:23:19;30.50;36.40
21171;DHT22;10743;52.160;20.910;2022-10-16T03:25:46;30.50;36.30
21171;DHT22;10743;52.160;20.910;2022-10-16T03:28:14;30.50;36.50
21171;DHT22;10743;52.160;20.910;2022-10-16T03:30:41;30.50;36.40
21171;DHT22;10743;52.160;20.910;2022-10-16T03:33:07;30.50;36.50
21171;DHT22;10743;52.160;20.910;2022-10-16T03:35:34;30.50;36.40
21171;DHT22;10743;52.160;20.910;2022-10-16T03:38:01;30.50;36.50
21171;DHT22;10743;52.160;20.910;2022-10-16T03:40:28;30.50;36.50
21171;DHT22;10743;52.160;20.910;2022-10-16T03:42:56;30.50;36.50
21171;DHT22;10743;52.160;20.910;2022-10-16T03:45:24;30.50;36.40
21171;DHT22;10743;52.160;20.910;2022-10-16T03:47:51;30.50;36.40
21171;DHT22;10743;52.160;20.910;2022-10-16T03:50:18;30.50;36.30
21171;DHT22;10743;52.160;20.910;2022-10-16T03:52:44;30.40;36.40
21171;DHT22;10743;52.160;20.910;2022-10-16T03:55:11;30.50;36.30
21171;DHT22;10743;52.160;20.910;2022-10-16T03:57:38;30.40;36.30
21171;DHT22;10743;52.160;20.910;2022-10-16T04:00:06;30.40;36.30
21171;DHT22;10743;52.160;20.910;2022-10-16T04:02:37;30.40;36.40
21171;DHT22;10743;52.160;20.910;2022-10-16T04:05:04;30.30;36.30
21171;DHT22;10743;52.160;20.910;2022-10-16T04:07:31;30.30;36.40
21171;DHT22;10743;52.160;20.910;2022-10-16T04:09:58;30.30;36.40
21171;DHT22;10743;52.160;20.910;2022-10-16T04:12:26;30.30;36.30
21171;DHT22;10743;52.160;20.910;2022-10-16T04:14:53;30.30;36.40
21171;DHT22;10743;52.160;20.910;2022-10-16T04:17:20;30.30;36.40
21171;DHT22;10743;52.160;20.910;2022-10-16T04:19:47;30.30;36.40
21171;DHT22;10743;52.160;20.910;2022-10-16T04:22:14;30.20;36.50
21171;DHT22;10743;52.160;20.910;2022-10-16T04:24:41;30.20;36.50
21171;DHT22;10743;52.160;20.910;2022-10-16T04:27:08;30.20;36.50
21171;DHT22;10743;52.160;20.910;2022-10-16T04:29:35;30.20;36.50
21171;DHT22;10743;52.160;20.910;2022-10-16T04:32:02;30.20;36.50
21171;DHT22;10743;52.160;20.910;2022-10-16T04:34:28;30.20;36.50
21171;DHT22;10743;52.160;20.910;2022-10-16T04:36:55;30.20;36.40
21171;DHT22;10743;52.160;20.910;2022-10-16T04:39:22;30.20;36.20
21171;DHT22;10743;52.160;20.910;2022-10-16T04:41:49;30.20;36.30
21171;DHT22;10743;52.160;20.910;2022-10-16T04:44:16;30.20;36.30
21171;DHT22;10743;52.160;20.910;2022-10-16T04:46:43;30.20;36.20
21171;DHT22;10743;52.160;20.910;2022-10-16T04:49:10;30.20;36.30
21171;DHT22;10743;52.160;20.910;2022-10-16T04:51:37;30.20;36.20
21171;DHT22;10743;52.160;20.910;2022-10-16T04:54:04;30.20;36.20
21171;DHT22;10743;52.160;20.910;2022-10-16T04:56:31;30.10;36.10
21171;DHT22;10743;52.160;20.910;2022-10-16T04:58:59;30.20;36.20
21171;DHT22;10743;52.160;20.910;2022-10-16T05:01:25;30.10;36.10
21171;DHT22;10743;52.160;20.910;2022-10-16T05:03:52;30.10;36.10
21171;DHT22;10743;52.160;20.910;2022-10-16T05:06:19;30.10;36.10
21171;DHT22;10743;52.160;20.910;2022-10-16T05:08:46;30.10;36.20
21171;DHT22;10743;52.160;20.910;2022-10-16T05:11:13;30.00;36.80
21171;DHT22;10743;52.160;20.910;2022-10-16T05:13:40;30.00;36.10
21171;DHT22;10743;52.160;20.910;2022-10-16T05:16:07;30.00;36.20
21171;DHT22;10743;52.160;20.910;2022-10-16T05:18:34;30.00;36.20
21171;DHT22;10743;52.160;20.910;2022-10-16T05:21:01;29.90;36.20
21171;DHT22;10743;52.160;20.910;2022-10-16T05:23:28;29.90;36.30
21171;DHT22;10743;52.160;20.910;2022-10-16T05:25:55;29.90;36.30
21171;DHT22;10743;52.160;20.910;2022-10-16T05:28:28;29.90;36.30
21171;DHT22;10743;52.160;20.910;2022-10-16T05:30:57;29.80;36.30
21171;DHT22;10743;52.160;20.910;2022-10-16T05:33:26;29.80;36.40
21171;DHT22;10743;52.160;20.910;2022-10-16T05:35:53;29.80;36.40
21171;DHT22;10743;52.160;20.910;2022-10-16T05:38:20;29.80;36.60
21171;DHT22;10743;52.160;20.910;2022-10-16T05:40:51;29.70;36.60
21171;DHT22;10743;52.160;20.910;2022-10-16T05:43:22;29.80;36.60
21171;DHT22;10743;52.160;20.910;2022-10-16T05:45:59;29.70;36.60
21171;DHT22;10743;52.160;20.910;2022-10-16T05:48:28;29.70;36.60
21171;DHT22;10743;52.160;20.910;2022-10-16T05:51:22;29.70;36.60
21171;DHT22;10743;52.160;20.910;2022-10-16T05:53:48;29.70;36.70
21171;DHT22;10743;52.160;20.910;2022-10-16T05:56:16;29.70;36.70
21171;DHT22;10743;52.160;20.910;2022-10-16T05:58:42;29.70;36.70
21171;DHT22;10743;52.160;20.910;2022-10-16T06:01:16;29.70;36.70
21171;DHT22;10743;52.160;20.910;2022-10-16T06:03:44;29.70;36.80
21171;DHT22;10743;52.160;20.910;2022-10-16T06:06:13;29.70;36.90
21171;DHT22;10743;52.160;20.910;2022-10-16T06:08:42;29.70;36.90
21171;DHT22;10743;52.160;20.910;2022-10-16T06:11:12;29.70;36.90
21171;DHT22;10743;52.160;20.910;2022-10-16T06:13:43;29.70;37.00
21171;DHT22;10743;52.160;20.910;2022-10-16T06:16:12;29.70;37.00
21171;DHT22;10743;52.160;20.910;2022-10-16T06:18:39;29.70;37.00
21171;DHT22;10743;52.160;20.910;2022-10-16T06:21:12;29.70;37.00
21171;DHT22;10743;52.160;20.910;2022-10-16T06:23:41;29.70;37.00
21171;DHT22;10743;52.160;20.910;2022-10-16T06:26:14;29.80;37.00
21171;DHT22;10743;52.160;20.910;2022-10-16T06:28:42;29.80;37.00
21171;DHT22;10743;52.160;20.910;2022-10-16T06:31:10;29.80;37.10
21171;DHT22;10743;52.160;20.910;2022-10-16T06:33:38;29.80;36.90
21171;DHT22;10743;52.160;20.910;2022-10-16T06:36:08;29.80;37.00
21171;DHT22;10743;52.160;20.910;2022-10-16T06:38:38;29.90;36.90
21171;DHT22;10743;52.160;20.910;2022-10-16T06:41:06;29.80;36.90
21171;DHT22;10743;52.160;20.910;2022-10-16T06:43:34;29.90;36.90
21171;DHT22;10743;52.160;20.910;2022-10-16T06:46:05;29.90;36.70
21171;DHT22;10743;52.160;20.910;2022-10-16T06:48:34;29.90;36.80
21171;DHT22;10743;52.160;20.910;2022-10-16T06:51:13;30.00;37.10
21171;DHT22;10743;52.160;20.910;2022-10-16T06:53:45;29.90;36.80
21171;DHT22;10743;52.160;20.910;2022-10-16T06:56:30;30.00;36.90
21171;DHT22;10743;52.160;20.910;2022-10-16T06:58:58;30.00;36.90
21171;DHT22;10743;52.160;20.910;2022-10-16T07:01:26;30.00;37.00
21171;DHT22;10743;52.160;20.910;2022-10-16T07:03:53;30.10;37.00
21171;DHT22;10743;52.160;20.910;2022-10-16T07:06:22;30.10;36.90
21171;DHT22;10743;52.160;20.910;2022-10-16T07:08:51;30.20;37.00
21171;DHT22;10743;52.160;20.910;2022-10-16T07:11:20;30.20;36.80
21171;DHT22;10743;52.160;20.910;2022-10-16T07:13:49;30.20;36.80
21171;DHT22;10743;52.160;20.910;2022-10-16T07:16:24;30.20;36.90
21171;DHT22;10743;52.160;20.910;2022-10-16T07:18:57;30.30;37.10
21171;DHT22;10743;52.160;20.910;2022-10-16T07:21:32;30.30;37.10
21171;DHT22;10743;52.160;20.910;2022-10-16T07:24:10;30.30;37.00
21171;DHT22;10743;52.160;20.910;2022-10-16T07:26:40;30.40;36.90
21171;DHT22;10743;52.160;20.910;2022-10-16T07:29:12;30.40;37.00
21171;DHT22;10743;52.160;20.910;2022-10-16T07:31:41;30.40;37.10
21171;DHT22;10743;52.160;20.910;2022-10-16T07:34:08;30.50;37.30
21171;DHT22;10743;52.160;20.910;2022-10-16T07:36:36;30.40;37.30
21171;DHT22;10743;52.160;20.910;2022-10-16T07:39:04;30.50;37.40
21171;DHT22;10743;52.160;20.910;2022-10-16T07:41:31;30.50;37.40
21171;DHT22;10743;52.160;20.910;2022-10-16T07:43:59;30.60;37.20
21171;DHT22;10743;52.160;20.910;2022-10-16T07:46:27;30.70;37.30
21171;DHT22;10743;52.160;20.910;2022-10-16T07:48:54;30.80;37.40
21171;DHT22;10743;52.160;20.910;2022-10-16T07:51:23;30.80;37.30
21171;DHT22;10743;52.160;20.910;2022-10-16T07:53:52;30.90;37.30
21171;DHT22;10743;52.160;20.910;2022-10-16T07:56:19;30.90;37.50
21171;DHT22;10743;52.160;20.910;2022-10-16T07:58:47;31.00;37.40
21171;DHT22;10743;52.160;20.910;2022-10-16T08:01:16;31.10;37.10
21171;DHT22;10743;52.160;20.910;2022-10-16T08:03:46;31.20;37.00
21171;DHT22;10743;52.160;20.910;2022-10-16T08:06:14;31.40;36.70
21171;DHT22;10743;52.160;20.910;2022-10-16T08:08:41;31.40;36.80
21171;DHT22;10743;52.160;20.910;2022-10-16T08:11:09;31.50;36.40
21171;DHT22;10743;52.160;20.910;2022-10-16T08:13:36;31.60;36.70
21171;DHT22;10743;52.160;20.910;2022-10-16T08:16:03;31.60;36.40
21171;DHT22;10743;52.160;20.910;2022-10-16T08:18:38;31.70;36.40
21171;DHT22;10743;52.160;20.910;2022-10-16T08:21:06;31.80;36.20
21171;DHT22;10743;52.160;20.910;2022-10-16T08:23:34;31.90;36.10
21171;DHT22;10743;52.160;20.910;2022-10-16T08:26:05;32.00;36.00
21171;DHT22;10743;52.160;20.910;2022-10-16T08:28:34;32.10;36.30
21171;DHT22;10743;52.160;20.910;2022-10-16T08:31:28;32.10;36.10
21171;DHT22;10743;52.160;20.910;2022-10-16T08:33:55;32.20;36.00
21171;DHT22;10743;52.160;20.910;2022-10-16T08:36:22;32.40;35.70
21171;DHT22;10743;52.160;20.910;2022-10-16T08:38:50;32.40;35.40
21171;DHT22;10743;52.160;20.910;2022-10-16T08:44:34;32.50;35.10
21171;DHT22;10743;52.160;20.910;2022-10-16T08:47:20;32.60;35.30
21171;DHT22;10743;52.160;20.910;2022-10-16T08:49:57;32.60;35.30
21171;DHT22;10743;52.160;20.910;2022-10-16T08:52:29;32.60;35.10
21171;DHT22;10743;52.160;20.910;2022-10-16T08:54:58;32.70;35.20
21171;DHT22;10743;52.160;20.910;2022-10-16T08:57:26;32.70;35.20
21171;DHT22;10743;52.160;20.910;2022-10-16T09:00:00;32.70;35.40
21171;DHT22;10743;52.160;20.910;2022-10-16T09:02:38;32.70;35.50
21171;DHT22;10743;52.160;20.910;2022-10-16T09:05:24;32.70;35.70
21171;DHT22;10743;52.160;20.910;2022-10-16T09:08:19;32.70;35.60
21171;DHT22;10743;52.160;20.910;2022-10-16T09:14:23;32.80;35.30
21171;DHT22;10743;52.160;20.910;2022-10-16T09:20:49;33.00;35.10
21171;DHT22;10743;52.160;20.910;2022-10-16T09:23:29;33.00;35.40
21171;DHT22;10743;52.160;20.910;2022-10-16T09:25:58;33.10;35.20
21171;DHT22;10743;52.160;20.910;2022-10-16T09:28:26;33.20;35.00
21171;DHT22;10743;52.160;20.910;2022-10-16T09:30:53;33.20;34.80
21171;DHT22;10743;52.160;20.910;2022-10-16T09:33:23;33.30;34.80
21171;DHT22;10743;52.160;20.910;2022-10-16T09:35:54;33.30;34.70
21171;DHT22;10743;52.160;20.910;2022-10-16T09:38:33;33.40;34.70
21171;DHT22;10743;52.160;20.910;2022-10-16T09:41:21;33.40;34.80
21171;DHT22;10743;52.160;20.910;2022-10-16T09:43:56;33.50;34.90
21171;DHT22;10743;52.160;20.910;2022-10-16T09:46:33;33.50;34.70
21171;DHT22;10743;52.160;20.910;2022-10-16T09:49:25;33.60;34.50
21171;DHT22;10743;52.160;20.910;2022-10-16T09:52:11;33.60;34.40
21171;DHT22;10743;52.160;20.910;2022-10-16T09:54:55;33.60;34.30
21171;DHT22;10743;52.160;20.910;2022-10-16T09:57:26;33.70;34.20
21171;DHT22;10743;52.160;20.910;2022-10-16T09:59:56;33.70;34.50
21171;DHT22;10743;52.160;20.910;2022-10-16T10:02:30;33.80;34.20
21171;DHT22;10743;52.160;20.910;2022-10-16T10:05:01;33.80;34.60
21171;DHT22;10743;52.160;20.910;2022-10-16T10:07:43;33.80;34.50
21171;DHT22;10743;52.160;20.910;2022-10-16T10:10:24;33.80;34.30
21171;DHT22;10743;52.160;20.910;2022-10-16T10:12:53;33.90;34.70
21171;DHT22;10743;52.160;20.910;2022-10-16T10:15:22;33.90;34.50
21171;DHT22;10743;52.160;20.910;2022-10-16T10:17:52;34.00;34.30
21171;DHT22;10743;52.160;20.910;2022-10-16T10:20:32;34.10;34.30
21171;DHT22;10743;52.160;20.910;2022-10-16T10:23:15;34.10;34.10
21171;DHT22;10743;52.160;20.910;2022-10-16T10:37:37;34.50;33.60
21171;DHT22;10743;52.160;20.910;2022-10-16T10:43:48;34.50;33.50
21171;DHT22;10743;52.160;20.910;2022-10-16T10:46:34;34.50;33.20
21171;DHT22;10743;52.160;20.910;2022-10-16T10:49:41;34.60;33.20
21171;DHT22;10743;52.160;20.910;2022-10-16T10:52:31;34.50;33.60
21171;DHT22;10743;52.160;20.910;2022-10-16T11:01:03;34.50;33.90
21171;DHT22;10743;52.160;20.910;2022-10-16T11:04:03;34.50;33.70
21171;DHT22;10743;52.160;20.910;2022-10-16T11:07:17;34.50;33.50
21171;DHT22;10743;52.160;20.910;2022-10-16T11:10:03;34.60;33.50
21171;DHT22;10743;52.160;20.910;2022-10-16T11:12:44;34.60;33.60
21171;DHT22;10743;52.160;20.910;2022-10-16T11:15:29;34.60;33.40
21171;DHT22;10743;52.160;20.910;2022-10-16T11:18:24;34.70;33.20
21171;DHT22;10743;52.160;20.910;2022-10-16T11:21:04;34.70;33.30
21171;DHT22;10743;52.160;20.910;2022-10-16T11:23:51;34.70;33.30
21171;DHT22;10743;52.160;20.910;2022-10-16T11:26:25;34.70;33.40
21171;DHT22;10743;52.160;20.910;2022-10-16T11:28:55;34.60;33.80
21171;DHT22;10743;52.160;20.910;2022-10-16T11:31:49;34.60;33.80
21171;DHT22;10743;52.160;20.910;2022-10-16T11:39:28;34.70;33.60
21171;DHT22;10743;52.160;20.910;2022-10-16T11:47:57;34.80;33.30
21171;DHT22;10743;52.160;20.910;2022-10-16T11:56:21;34.90;33.50
21171;DHT22;10743;52.160;20.910;2022-10-16T11:59:01;34.90;33.40
21171;DHT22;10743;52.160;20.910;2022-10-16T12:01:50;34.90;33.30
21171;DHT22;10743;52.160;20.910;2022-10-16T12:04:43;35.00;33.20
21171;DHT22;10743;52.160;20.910;2022-10-16T12:07:22;35.00;32.90
21171;DHT22;10743;52.160;20.910;2022-10-16T12:09:51;35.00;32.80
21171;DHT22;10743;52.160;20.910;2022-10-16T12:12:37;35.10;32.70
21171;DHT22;10743;52.160;20.910;2022-10-16T12:17:51;35.10;32.80
21171;DHT22;10743;52.160;20.910;2022-10-16T12:20:20;35.20;32.70
21171;DHT22;10743;52.160;20.910;2022-10-16T12:23:00;35.20;32.80
21171;DHT22;10743;52.160;20.910;2022-10-16T12:25:39;35.20;32.70
21171;DHT22;10743;52.160;20.910;2022-10-16T12:30:43;35.10;32.90
21171;DHT22;10743;52.160;20.910;2022-10-16T12:33:25;35.00;33.00
21171;DHT22;10743;52.160;20.910;2022-10-16T12:35:54;35.10;33.20
21171;DHT22;10743;52.160;20.910;2022-10-16T12:38:26;35.10;33.00
21171;DHT22;10743;52.160;20.910;2022-10-16T12:41:06;35.10;33.00
21171;DHT22;10743;52.160;20.910;2022-10-16T12:43:41;35.10;33.00
21171;DHT22;10743;52.160;20.910;2022-10-16T12:48:42;35.20;32.80
21171;DHT22;10743;52.160;20.910;2022-10-16T12:54:34;35.20;32.90
21171;DHT22;10743;52.160;20.910;2022-10-16T12:57:37;35.10;33.00
21171;DHT22;10743;52.160;20.910;2022-10-16T13:00:43;35.20;33.00
21171;DHT22;10743;52.160;20.910;2022-10-16T13:03:37;35.10;33.10
21171;DHT22;10743;52.160;20.910;2022-10-16T13:09:54;35.10;32.90
21171;DHT22;10743;52.160;20.910;2022-10-16T13:16:15;35.10;33.20
21171;DHT22;10743;52.160;20.910;2022-10-16T13:24:59;35.00;33.60
21171;DHT22;10743;52.160;20.910;2022-10-16T13:28:06;35.00;33.80
21171;DHT22;10743;52.160;20.910;2022-10-16T13:30:43;35.00;33.60
21171;DHT22;10743;52.160;20.910;2022-10-16T13:33:28;35.00;33.70
21171;DHT22;10743;52.160;20.910;2022-10-16T13:36:02;35.00;33.70
21171;DHT22;10743;52.160;20.910;2022-10-16T13:38:32;35.00;33.70
21171;DHT22;10743;52.160;20.910;2022-10-16T13:41:05;35.00;33.80
21171;DHT22;10743;52.160;20.910;2022-10-16T13:43:46;34.90;34.00
21171;DHT22;10743;52.160;20.910;2022-10-16T13:46:16;34.90;34.00
21171;DHT22;10743;52.160;20.910;2022-10-16T13:49:01;34.90;34.00
21171;DHT22;10743;52.160;20.910;2022-10-16T13:51:31;34.90;34.30
21171;DHT22;10743;52.160;20.910;2022-10-16T13:53:59;34.90;34.30
21171;DHT22;10743;52.160;20.910;2022-10-16T13:56:28;34.90;34.50
21171;DHT22;10743;52.160;20.910;2022-10-16T14:01:55;34.90;34.20
21171;DHT22;10743;52.160;20.910;2022-10-16T14:04:23;34.90;34.30
21171;DHT22;10743;52.160;20.910;2022-10-16T14:06:51;34.90;34.30
21171;DHT22;10743;52.160;20.910;2022-10-16T14:09:25;34.90;34.40
21171;DHT22;10743;52.160;20.910;2022-10-16T14:11:57;34.90;34.50
21171;DHT22;10743;52.160;20.910;2022-10-16T14:14:38;34.80;33.80
21171;DHT22;10743;52.160;20.910;2022-10-16T14:17:27;34.90;34.50
21171;DHT22;10743;52.160;20.910;2022-10-16T14:19:58;34.80;34.30
21171;DHT22;10743;52.160;20.910;2022-10-16T14:22:36;34.80;34.50
21171;DHT22;10743;52.160;20.910;2022-10-16T14:27:58;34.80;34.70
21171;DHT22;10743;52.160;20.910;2022-10-16T14:30:34;34.80;34.80
21171;DHT22;10743;52.160;20.910;2022-10-16T14:33:18;34.80;35.00
21171;DHT22;10743;52.160;20.910;2022-10-16T14:38:43;34.80;34.90
21171;DHT22;10743;52.160;20.910;2022-10-16T14:41:20;34.80;35.00
21171;DHT22;10743;52.160;20.910;2022-10-16T14:44:02;34.80;34.90
21171;DHT22;10743;52.160;20.910;2022-10-16T14:46:33;34.80;34.90
21171;DHT22;10743;52.160;20.910;2022-10-16T14:49:15;34.80;35.00
21171;DHT22;10743;52.160;20.910;2022-10-16T14:51:44;34.80;35.20
21171;DHT22;10743;52.160;20.910;2022-10-16T14:54:17;34.70;35.00
21171;DHT22;10743;52.160;20.910;2022-10-16T14:56:47;34.80;35.00
21171;DHT22;10743;52.160;20.910;2022-10-16T14:59:39;34.80;35.20
21171;DHT22;10743;52.160;20.910;2022-10-16T15:02:28;34.80;35.10
21171;DHT22;10743;52.160;20.910;2022-10-16T15:04:57;34.70;35.00
21171;DHT22;10743;52.160;20.910;2022-10-16T15:07:25;34.70;34.90
21171;DHT22;10743;52.160;20.910;2022-10-16T15:09:52;34.70;34.90
21171;DHT22;10743;52.160;20.910;2022-10-16T15:12:20;34.70;35.00
21171;DHT22;10743;52.160;20.910;2022-10-16T15:14:47;34.70;35.10
21171;DHT22;10743;52.160;20.910;2022-10-16T15:17:14;34.70;35.20
21171;DHT22;10743;52.160;20.910;2022-10-16T15:19:45;34.70;35.30
21171;DHT22;10743;52.160;20.910;2022-10-16T15:22:12;34.70;35.30
21171;DHT22;10743;52.160;20.910;2022-10-16T15:24:39;34.60;35.30
21171;DHT22;10743;52.160;20.910;2022-10-16T15:27:06;34.60;35.30
21171;DHT22;10743;52.160;20.910;2022-10-16T15:29:33;34.60;35.30
21171;DHT22;10743;52.160;20.910;2022-10-16T15:32:00;34.60;35.30
21171;DHT22;10743;52.160;20.910;2022-10-16T15:34:27;34.50;35.40
21171;DHT22;10743;52.160;20.910;2022-10-16T15:36:53;34.50;35.50
21171;DHT22;10743;52.160;20.910;2022-10-16T15:39:21;34.50;35.50
21171;DHT22;10743;52.160;20.910;2022-10-16T15:41:48;34.50;35.60
21171;DHT22;10743;52.160;20.910;2022-10-16T15:44:18;34.50;35.60
21171;DHT22;10743;52.160;20.910;2022-10-16T15:46:46;34.40;35.60
21171;DHT22;10743;52.160;20.910;2022-10-16T15:49:13;34.40;35.60
21171;DHT22;10743;52.160;20.910;2022-10-16T15:51:41;34.40;35.60
21171;DHT22;10743;52.160;20.910;2022-10-16T15:54:09;34.40;35.70
21171;DHT22;10743;52.160;20.910;2022-10-16T15:56:36;34.40;35.80
21171;DHT22;10743;52.160;20.910;2022-10-16T15:59:04;34.30;35.80
21171;DHT22;10743;52.160;20.910;2022-10-16T16:01:33;34.30;35.80
21171;DHT22;10743;52.160;20.910;2022-10-16T16:04:01;34.30;36.00
21171;DHT22;10743;52.160;20.910;2022-10-16T16:06:45;34.30;36.00
21171;DHT22;10743;52.160;20.910;2022-10-16T16:09:13;34.20;36.00
21171;DHT22;10743;52.160;20.910;2022-10-16T16:11:42;34.20;36.10
21171;DHT22;10743;52.160;20.910;2022-10-16T16:14:13;34.20;36.10
21171;DHT22;10743;52.160;20.910;2022-10-16T16:16:41;34.20;36.20
21171;DHT22;10743;52.160;20.910;2022-10-16T16:19:08;34.20;36.30
21171;DHT22;10743;52.160;20.910;2022-10-16T16:21:38;34.20;36.40
21171;DHT22;10743;52.160;20.910;2022-10-16T16:24:05;34.10;37.00
21171;DHT22;10743;52.160;20.910;2022-10-16T16:26:35;34.10;36.30
21171;DHT22;10743;52.160;20.910;2022-10-16T16:29:06;34.10;36.40
21171;DHT22;10743;52.160;20.910;2022-10-16T16:31:35;34.00;36.40
21171;DHT22;10743;52.160;20.910;2022-10-16T16:34:02;34.00;36.50
21171;DHT22;10743;52.160;20.910;2022-10-16T16:36:30;34.00;36.50
21171;DHT22;10743;52.160;20.910;2022-10-16T16:38:57;34.00;36.60
21171;DHT22;10743;52.160;20.910;2022-10-16T16:41:27;34.00;36.60
21171;DHT22;10743;52.160;20.910;2022-10-16T16:44:05;34.00;36.70
21171;DHT22;10743;52.160;20.910;2022-10-16T16:46:34;33.90;36.70
21171;DHT22;10743;52.160;20.910;2022-10-16T16:49:02;33.90;36.80
21171;DHT22;10743;52.160;20.910;2022-10-16T16:51:30;33.90;36.80
21171;DHT22;10743;52.160;20.910;2022-10-16T16:53:57;33.90;36.80
21171;DHT22;10743;52.160;20.910;2022-10-16T16:56:24;33.90;36.80
21171;DHT22;10743;52.160;20.910;2022-10-16T16:58:54;33.90;36.80
21171;DHT22;10743;52.160;20.910;2022-10-16T17:01:23;33.90;36.90
21171;DHT22;10743;52.160;20.910;2022-10-16T17:03:54;33.80;36.90
21171;DHT22;10743;52.160;20.910;2022-10-16T17:06:24;33.80;36.80
21171;DHT22;10743;52.160;20.910;2022-10-16T17:08:53;33.90;36.90
21171;DHT22;10743;52.160;20.910;2022-10-16T17:11:27;33.80;36.90
21171;DHT22;10743;52.160;20.910;2022-10-16T17:13:56;33.80;36.90